Time;durP1;ratioP1;P1;durP2;ratioP2;P2;SDS_P1;SDS_P2;PMS_P1;PMS_P2;Temp;Humidity;BMP_temperature;BMP_pressure;BME280_temperature;BME280_humidity;BME280_pressure;Samples;Min_cycle;Max_cycle;Signal;HPM_P1;HPM_P2
2022/04/08 00:01:55;;;;;;;24.52;4.20;;;;;;;;;;4998524;28;20026;-68
2022/04/08 00:04:23;;;;;;;22.90;4.78;;;;;;;;;;5001992;28;20045;-68
2022/04/08 00:06:51;;;;;;;25.17;4.68;;;;;;;;;;4997159;28;20030;-69
2022/04/08 00:09:18;;;;;;;25.75;4.43;;;;;;;;;;5001909;28;20040;-68
2022/04/08 00:11:45;;;;;;;20.40;4.60;;;;;;;;;;4996202;28;20021;-69
2022/04/08 00:14:13;;;;;;;27.92;4.82;;;;;;;;;;4994249;28;20131;-69
2022/04/08 00:16:40;;;;;;;24.40;4.55;;;;;;;;;;4999077;28;20026;-69
2022/04/08 00:19:09;;;;;;;23.30;4.85;;;;;;;;;;4996275;28;20461;-69
2022/04/08 00:21:39;;;;;;;31.30;5.07;;;;;;;;;;4999014;28;20344;-69
2022/04/08 00:24:07;;;;;;;31.27;5.15;;;;;;;;;;4962566;28;20041;-69
2022/04/08 00:26:35;;;;;;;27.35;5.20;;;;;;;;;;5000726;28;20843;-69
2022/04/08 00:29:05;;;;;;;24.65;4.97;;;;;;;;;;4997680;28;20144;-68
2022/04/08 00:31:32;;;;;;;25.52;4.47;;;;;;;;;;4998799;28;20107;-69
2022/04/08 00:33:58;;;;;;;24.98;4.40;;;;;;;;;;5000234;28;20036;-69
2022/04/08 00:36:24;;;;;;;25.88;4.60;;;;;;;;;;5000469;28;20053;-69
2022/04/08 00:38:52;;;;;;;27.05;4.60;;;;;;;;;;4981389;28;20379;-68
2022/04/08 00:41:20;;;;;;;28.50;4.78;;;;;;;;;;4997951;28;20441;-69
2022/04/08 00:43:46;;;;;;;26.08;4.78;;;;;;;;;;5000208;28;20451;-68
2022/04/08 00:46:15;;;;;;;23.48;4.32;;;;;;;;;;5001650;28;20045;-69
2022/04/08 00:48:44;;;;;;;24.75;4.68;;;;;;;;;;4999987;28;20477;-69
2022/04/08 00:51:12;;;;;;;24.63;4.63;;;;;;;;;;4999605;28;20037;-69
2022/04/08 00:53:40;;;;;;;27.50;5.32;;;;;;;;;;4999414;28;20111;-69
2022/04/08 00:56:09;;;;;;;24.10;5.22;;;;;;;;;;4980141;28;20040;-69
2022/04/08 00:58:38;;;;;;;19.55;4.10;;;;;;;;;;4985642;28;20661;-69
2022/04/08 01:01:06;;;;;;;26.05;4.63;;;;;;;;;;4997590;28;20517;-68
2022/04/08 01:03:37;;;;;;;22.83;5.18;;;;;;;;;;4998631;28;20215;-68
2022/04/08 01:06:07;;;;;;;20.10;4.80;;;;;;;;;;5003665;28;22090;-69
2022/04/08 01:08:36;;;;;;;27.98;7.05;;;;;;;;;;4999686;28;20061;-69
2022/04/08 01:11:08;;;;;;;25.40;4.70;;;;;;;;;;4996703;28;20387;-69
2022/04/08 01:13:36;;;;;;;33.15;6.13;;;;;;;;;;4999198;28;20060;-68
2022/04/08 01:16:09;;;;;;;23.92;4.55;;;;;;;;;;4978578;28;20462;-69
2022/04/08 01:18:37;;;;;;;23.38;3.90;;;;;;;;;;4985591;28;20042;-69
2022/04/08 01:21:08;;;;;;;24.73;4.45;;;;;;;;;;4998290;28;20064;-69
2022/04/08 01:23:36;;;;;;;28.98;4.88;;;;;;;;;;4987265;28;20099;-69
2022/04/08 01:26:08;;;;;;;26.00;5.07;;;;;;;;;;4981353;28;20111;-68
2022/04/08 01:28:35;;;;;;;27.92;4.35;;;;;;;;;;4984994;28;20451;-67
2022/04/08 01:31:02;;;;;;;25.77;4.85;;;;;;;;;;4981041;28;20022;-70
2022/04/08 01:33:29;;;;;;;27.83;4.63;;;;;;;;;;4983399;28;20160;-69
2022/04/08 01:36:00;;;;;;;27.95;4.82;;;;;;;;;;5009661;28;20567;-69
2022/04/08 01:38:29;;;;;;;22.90;4.38;;;;;;;;;;5022810;28;20241;-69
2022/04/08 01:41:00;;;;;;;31.50;5.10;;;;;;;;;;5008583;28;20053;-69
2022/04/08 01:43:28;;;;;;;30.80;5.00;;;;;;;;;;5001439;28;20780;-68
2022/04/08 01:45:56;;;;;;;27.27;5.18;;;;;;;;;;4995599;28;20064;-68
2022/04/08 01:48:25;;;;;;;21.15;4.45;;;;;;;;;;5000581;28;20045;-69
2022/04/08 01:50:53;;;;;;;28.20;4.68;;;;;;;;;;4999926;28;20513;-69
2022/04/08 01:53:20;;;;;;;25.00;4.53;;;;;;;;;;5000698;28;20482;-68
2022/04/08 01:55:48;;;;;;;25.33;4.03;;;;;;;;;;5000388;28;20030;-68
2022/04/08 01:58:17;;;;;;;26.90;4.97;;;;;;;;;;5002220;28;20060;-68
2022/04/08 02:00:45;;;;;;;25.85;3.95;;;;;;;;;;4985563;28;20045;-68
2022/04/08 02:03:17;;;;;;;21.75;4.20;;;;;;;;;;4985975;28;20136;-68
2022/04/08 02:05:45;;;;;;;28.30;4.93;;;;;;;;;;4982822;28;20090;-69
2022/04/08 02:08:13;;;;;;;27.33;4.78;;;;;;;;;;4976491;28;20045;-69
2022/04/08 02:10:41;;;;;;;22.25;4.03;;;;;;;;;;4983180;28;20033;-68
2022/04/08 02:13:08;;;;;;;24.40;5.00;;;;;;;;;;4975514;28;20846;-69
2022/04/08 02:15:34;;;;;;;25.92;4.68;;;;;;;;;;4980665;28;20089;-68
2022/04/08 02:18:03;;;;;;;25.77;4.45;;;;;;;;;;4964298;28;20506;-69
2022/04/08 02:20:30;;;;;;;21.27;4.30;;;;;;;;;;4948820;28;20042;-68
2022/04/08 02:23:01;;;;;;;22.67;4.50;;;;;;;;;;4945568;28;20042;-68
2022/04/08 02:25:28;;;;;;;26.77;4.55;;;;;;;;;;4964100;28;20681;-69
2022/04/08 02:27:56;;;;;;;27.33;4.35;;;;;;;;;;4941907;28;20125;-69
2022/04/08 02:30:24;;;;;;;24.27;4.22;;;;;;;;;;4963779;28;20034;-68
2022/04/08 02:32:51;;;;;;;24.27;4.60;;;;;;;;;;4943805;28;20469;-68
2022/04/08 02:35:20;;;;;;;30.55;4.68;;;;;;;;;;4943605;28;20054;-67
2022/04/08 02:37:47;;;;;;;22.33;4.55;;;;;;;;;;4954532;28;20245;-68
2022/04/08 02:40:13;;;;;;;22.27;4.45;;;;;;;;;;4960128;28;20151;-68
2022/04/08 02:42:41;;;;;;;25.85;4.93;;;;;;;;;;4959225;28;20610;-69
2022/04/08 02:45:08;;;;;;;26.45;4.53;;;;;;;;;;4939365;28;20050;-69
2022/04/08 02:47:46;;;;;;;27.80;4.45;;;;;;;;;;4948274;28;20453;-68
2022/04/08 02:50:14;;;;;;;23.02;4.50;;;;;;;;;;4963018;28;20484;-68
2022/04/08 02:52:42;;;;;;;27.08;4.47;;;;;;;;;;4980992;28;20033;-69
2022/04/08 02:55:08;;;;;;;22.00;4.15;;;;;;;;;;4978836;28;20037;-68
2022/04/08 02:57:55;;;;;;;25.55;4.55;;;;;;;;;;4984796;28;20038;-69
2022/04/08 03:00:23;;;;;;;23.30;4.82;;;;;;;;;;4987619;28;20117;-68
2022/04/08 03:02:52;;;;;;;23.23;4.63;;;;;;;;;;4981949;28;22154;-69
2022/04/08 03:05:18;;;;;;;22.48;4.57;;;;;;;;;;4979587;28;20038;-68
2022/04/08 03:07:45;;;;;;;23.15;4.20;;;;;;;;;;4984820;28;20033;-68
2022/04/08 03:10:11;;;;;;;25.77;4.90;;;;;;;;;;4986089;28;20049;-67
2022/04/08 03:12:37;;;;;;;28.73;4.53;;;;;;;;;;4998358;28;20041;-68
2022/04/08 03:15:06;;;;;;;29.48;4.93;;;;;;;;;;5005676;28;20040;-69
2022/04/08 03:17:32;;;;;;;31.83;5.22;;;;;;;;;;4984663;28;20076;-70
2022/04/08 03:19:59;;;;;;;23.80;4.50;;;;;;;;;;4982331;28;20049;-69
2022/04/08 03:22:27;;;;;;;29.92;5.32;;;;;;;;;;5004269;28;20048;-70
2022/04/08 03:24:55;;;;;;;23.73;3.90;;;;;;;;;;5003869;28;20042;-68
2022/04/08 03:27:22;;;;;;;25.35;4.90;;;;;;;;;;4997749;28;20021;-68
2022/04/08 03:29:50;;;;;;;24.77;4.70;;;;;;;;;;4983273;28;20442;-68
2022/04/08 03:32:18;;;;;;;25.20;4.43;;;;;;;;;;5002262;28;20025;-70
2022/04/08 03:34:44;;;;;;;21.15;4.88;;;;;;;;;;5002309;28;20045;-69
2022/04/08 03:37:16;;;;;;;29.35;4.45;;;;;;;;;;4989105;28;20038;-70
2022/04/08 03:39:47;;;;;;;21.42;4.40;;;;;;;;;;4969057;28;20065;-69
2022/04/08 03:42:14;;;;;;;28.17;4.82;;;;;;;;;;4967272;28;20061;-69
2022/04/08 03:44:42;;;;;;;27.25;4.72;;;;;;;;;;4990662;28;20141;-69
2022/04/08 03:47:09;;;;;;;27.08;4.93;;;;;;;;;;4987050;28;20053;-68
2022/04/08 03:49:36;;;;;;;26.67;4.95;;;;;;;;;;4989445;28;20032;-68
2022/04/08 03:52:09;;;;;;;27.33;4.50;;;;;;;;;;4985406;28;20029;-68
2022/04/08 03:54:39;;;;;;;24.00;4.72;;;;;;;;;;4975936;28;20472;-71
2022/04/08 03:57:07;;;;;;;25.00;4.45;;;;;;;;;;4984281;28;20049;-70
2022/04/08 03:59:37;;;;;;;22.52;4.40;;;;;;;;;;4986653;28;20366;-68
2022/04/08 04:02:05;;;;;;;21.40;4.57;;;;;;;;;;4986967;28;20041;-67
2022/04/08 04:04:32;;;;;;;28.30;5.45;;;;;;;;;;4989349;28;20030;-69
2022/04/08 04:07:01;;;;;;;24.58;5.25;;;;;;;;;;4964433;28;20148;-68
2022/04/08 04:09:30;;;;;;;26.50;5.47;;;;;;;;;;4990192;28;20026;-68
2022/04/08 04:11:58;;;;;;;24.27;5.18;;;;;;;;;;4988290;28;20033;-69
2022/04/08 04:14:27;;;;;;;22.85;4.45;;;;;;;;;;4994154;28;20030;-69
2022/04/08 04:16:54;;;;;;;27.35;5.78;;;;;;;;;;4971740;28;20037;-69
2022/04/08 04:19:21;;;;;;;31.67;5.88;;;;;;;;;;4975978;28;20100;-69
2022/04/08 04:21:49;;;;;;;23.70;5.47;;;;;;;;;;4984909;28;20423;-69
2022/04/08 04:24:18;;;;;;;26.83;4.72;;;;;;;;;;4991689;28;20137;-68
2022/04/08 04:26:46;;;;;;;27.27;4.60;;;;;;;;;;4988716;28;20554;-68
2022/04/08 04:29:16;;;;;;;25.13;5.15;;;;;;;;;;4993031;28;20053;-68
2022/04/08 04:31:44;;;;;;;26.13;5.00;;;;;;;;;;4955108;28;20100;-69
2022/04/08 04:34:10;;;;;;;27.05;5.30;;;;;;;;;;4973604;28;20144;-68
2022/04/08 04:36:36;;;;;;;25.75;4.60;;;;;;;;;;4973000;28;20077;-68
2022/04/08 04:39:02;;;;;;;26.52;5.13;;;;;;;;;;4965948;28;20037;-68
2022/04/08 04:41:30;;;;;;;22.20;4.20;;;;;;;;;;4969891;28;20034;-67
2022/04/08 04:43:56;;;;;;;24.33;4.45;;;;;;;;;;4979148;28;20550;-68
2022/04/08 04:46:25;;;;;;;28.63;4.80;;;;;;;;;;4982784;28;20029;-68
2022/04/08 04:48:52;;;;;;;21.17;4.72;;;;;;;;;;4974742;28;20444;-69
2022/04/08 04:51:21;;;;;;;26.48;4.88;;;;;;;;;;4979902;28;20065;-68
2022/04/08 04:53:47;;;;;;;25.80;5.47;;;;;;;;;;4978075;28;20030;-68
2022/04/08 04:56:15;;;;;;;27.48;4.82;;;;;;;;;;4983218;28;20056;-68
2022/04/08 04:58:41;;;;;;;25.95;4.95;;;;;;;;;;4968546;28;20562;-67
2022/04/08 05:01:09;;;;;;;22.92;4.75;;;;;;;;;;4975463;28;20392;-68
2022/04/08 05:03:35;;;;;;;22.45;4.43;;;;;;;;;;4967032;28;20040;-68
2022/04/08 05:06:01;;;;;;;26.38;4.85;;;;;;;;;;4964224;28;20215;-69
2022/04/08 05:08:28;;;;;;;25.92;4.75;;;;;;;;;;4978853;28;20085;-68
2022/04/08 05:10:55;;;;;;;20.25;4.50;;;;;;;;;;4976339;28;20362;-69
2022/04/08 05:13:23;;;;;;;24.55;4.63;;;;;;;;;;4982306;28;20033;-68
2022/04/08 05:15:49;;;;;;;27.35;5.03;;;;;;;;;;4976577;28;20038;-69
2022/04/08 05:18:15;;;;;;;24.25;4.93;;;;;;;;;;4985105;28;20049;-70
2022/04/08 05:20:43;;;;;;;21.60;4.93;;;;;;;;;;4981405;28;20088;-69
2022/04/08 05:23:10;;;;;;;22.33;4.78;;;;;;;;;;4978099;28;20054;-68
2022/04/08 05:25:37;;;;;;;30.45;4.95;;;;;;;;;;4985944;28;20026;-68
2022/04/08 05:28:04;;;;;;;31.23;5.32;;;;;;;;;;4980586;28;20045;-68
2022/04/08 05:30:30;;;;;;;26.30;5.15;;;;;;;;;;4987277;28;20399;-70
2022/04/08 05:32:57;;;;;;;23.50;4.93;;;;;;;;;;4962755;28;20064;-69
2022/04/08 05:35:24;;;;;;;25.35;4.97;;;;;;;;;;4980243;28;20021;-69
2022/04/08 05:37:50;;;;;;;26.08;5.07;;;;;;;;;;4965744;28;20480;-68
2022/04/08 05:40:20;;;;;;;25.83;5.25;;;;;;;;;;4982059;28;20985;-69
2022/04/08 05:42:49;;;;;;;23.60;4.50;;;;;;;;;;4977571;28;20511;-67
2022/04/08 05:45:21;;;;;;;25.20;4.95;;;;;;;;;;4977859;28;20026;-67
2022/04/08 05:47:54;;;;;;;28.17;5.53;;;;;;;;;;4960555;28;20049;-68
2022/04/08 05:50:24;;;;;;;31.63;5.10;;;;;;;;;;4980510;28;20034;-68
2022/04/08 05:52:52;;;;;;;30.38;5.63;;;;;;;;;;4956336;28;20037;-69
2022/04/08 05:55:21;;;;;;;29.67;5.82;;;;;;;;;;4982838;28;20030;-69
2022/04/08 05:57:48;;;;;;;24.45;6.32;;;;;;;;;;4981613;28;21286;-68
2022/04/08 06:00:15;;;;;;;40.70;7.03;;;;;;;;;;4985528;28;20029;-68
2022/04/08 06:02:47;;;;;;;28.17;6.63;;;;;;;;;;4979602;28;20502;-69
2022/04/08 06:05:18;;;;;;;32.25;6.43;;;;;;;;;;4977565;28;20118;-68
2022/04/08 06:07:46;;;;;;;31.50;5.90;;;;;;;;;;4973285;28;20038;-67
2022/04/08 06:10:13;;;;;;;26.15;5.63;;;;;;;;;;4979566;28;20087;-68
2022/04/08 06:12:39;;;;;;;27.42;6.28;;;;;;;;;;4957964;28;20033;-68
2022/04/08 06:15:05;;;;;;;;;;;;;;;;;;4973778;28;20716;-69
2022/04/08 06:17:39;;;;;;;26.67;5.40;;;;;;;;;;4977730;28;19948;-68
2022/04/08 06:20:09;;;;;;;27.52;5.80;;;;;;;;;;4973097;28;20647;-70
2022/04/08 06:22:40;;;;;;;26.00;5.10;;;;;;;;;;4971499;28;20038;-69
2022/04/08 06:25:07;;;;;;;27.38;6.35;;;;;;;;;;4955181;28;20041;-69
2022/04/08 06:27:35;;;;;;;26.23;5.65;;;;;;;;;;4956722;28;20392;-69
2022/04/08 06:30:02;;;;;;;27.70;5.45;;;;;;;;;;4972089;28;20498;-69
2022/04/08 06:32:29;;;;;;;27.55;5.55;;;;;;;;;;4980248;28;20113;-69
2022/04/08 06:34:56;;;;;;;26.10;5.28;;;;;;;;;;4975086;28;20132;-69
2022/04/08 06:37:28;;;;;;;24.35;4.80;;;;;;;;;;4987670;28;20049;-69
2022/04/08 06:39:55;;;;;;;27.48;5.38;;;;;;;;;;4974909;28;20038;-70
2022/04/08 06:42:23;;;;;;;28.13;5.60;;;;;;;;;;4972399;28;20702;-68
2022/04/08 06:44:51;;;;;;;38.25;7.10;;;;;;;;;;4977810;28;20112;-69
2022/04/08 06:47:19;;;;;;;33.15;6.55;;;;;;;;;;4990848;28;20029;-70
2022/04/08 06:49:46;;;;;;;25.75;6.00;;;;;;;;;;4969837;28;20084;-68
2022/04/08 06:52:14;;;;;;;30.52;6.53;;;;;;;;;;4985387;28;20533;-68
2022/04/08 06:54:40;;;;;;;26.45;6.07;;;;;;;;;;4982375;28;20037;-67
2022/04/08 06:57:08;;;;;;;28.92;6.05;;;;;;;;;;4984315;28;20035;-69
2022/04/08 06:59:36;;;;;;;26.88;5.50;;;;;;;;;;4988787;28;20034;-68
2022/04/08 07:02:04;;;;;;;25.90;5.93;;;;;;;;;;4985672;28;20738;-68
2022/04/08 07:04:30;;;;;;;32.30;6.53;;;;;;;;;;4987828;28;20041;-68
2022/04/08 07:06:59;;;;;;;24.98;6.22;;;;;;;;;;4987785;28;20044;-70
2022/04/08 07:09:30;;;;;;;30.52;5.80;;;;;;;;;;4968983;28;20453;-70
2022/04/08 07:11:59;;;;;;;28.15;6.05;;;;;;;;;;4984691;28;20032;-70
2022/04/08 07:14:27;;;;;;;21.55;5.63;;;;;;;;;;4976360;28;20026;-68
2022/04/08 07:16:54;;;;;;;24.30;5.88;;;;;;;;;;4968969;28;20026;-68
2022/04/08 07:19:22;;;;;;;28.08;5.78;;;;;;;;;;4973202;28;20034;-68
2022/04/08 07:21:48;;;;;;;30.80;6.20;;;;;;;;;;4988599;28;20632;-68
2022/04/08 07:24:16;;;;;;;29.08;6.75;;;;;;;;;;4974259;28;20125;-68
2022/04/08 07:26:43;;;;;;;22.27;5.72;;;;;;;;;;4991151;28;20498;-69
2022/04/08 07:29:09;;;;;;;22.23;6.47;;;;;;;;;;4968504;28;20041;-68
2022/04/08 07:31:36;;;;;;;27.38;6.60;;;;;;;;;;4963691;28;20399;-69
2022/04/08 07:34:04;;;;;;;20.02;5.95;;;;;;;;;;4979983;28;20577;-69
2022/04/08 07:36:33;;;;;;;26.58;7.63;;;;;;;;;;4972969;28;20069;-69
2022/04/08 07:38:59;;;;;;;25.80;7.18;;;;;;;;;;4991091;28;20033;-69
2022/04/08 07:41:26;;;;;;;27.02;7.70;;;;;;;;;;4995604;28;20032;-69
2022/04/08 07:43:55;;;;;;;20.08;6.90;;;;;;;;;;4978191;28;20034;-69
2022/04/08 07:46:23;;;;;;;27.35;8.23;;;;;;;;;;4994016;28;20041;-70
2022/04/08 07:48:52;;;;;;;24.92;8.30;;;;;;;;;;4947118;28;20471;-68
2022/04/08 07:51:18;;;;;;;24.58;7.45;;;;;;;;;;4992412;28;20022;-68
2022/04/08 07:53:45;;;;;;;24.42;7.85;;;;;;;;;;4995224;28;20041;-68
2022/04/08 07:56:11;;;;;;;;;;;;;;;;;;4983150;28;20135;-69
2022/04/08 07:58:39;;;;;;;32.17;9.18;;;;;;;;;;4994722;28;20453;-71
2022/04/08 08:01:08;;;;;;;27.92;8.95;;;;;;;;;;4988963;28;20901;-68
2022/04/08 08:03:35;;;;;;;25.20;9.05;;;;;;;;;;4994128;28;20263;-68
2022/04/08 08:06:03;;;;;;;25.13;8.43;;;;;;;;;;4957756;28;20158;-69
2022/04/08 08:08:30;;;;;;;26.52;7.53;;;;;;;;;;4950924;28;20595;-70
2022/04/08 08:10:57;;;;;;;27.00;6.88;;;;;;;;;;4942704;28;20211;-70
2022/04/08 08:13:23;;;;;;;24.25;7.35;;;;;;;;;;4932061;28;20651;-70
2022/04/08 08:15:50;;;;;;;24.15;7.38;;;;;;;;;;4957444;28;20064;-70
2022/04/08 08:18:19;;;;;;;18.60;6.53;;;;;;;;;;4945797;28;20537;-70
2022/04/08 08:20:47;;;;;;;28.98;7.75;;;;;;;;;;4940844;28;21842;-70
2022/04/08 08:23:14;;;;;;;20.98;7.03;;;;;;;;;;4953949;28;20038;-71
2022/04/08 08:25:44;;;;;;;25.25;7.00;;;;;;;;;;4952964;28;20143;-70
2022/04/08 08:28:11;;;;;;;23.40;7.25;;;;;;;;;;4968896;28;20043;-71
2022/04/08 08:30:39;;;;;;;24.02;8.18;;;;;;;;;;4959154;28;20401;-70
2022/04/08 08:33:05;;;;;;;23.83;9.02;;;;;;;;;;4957968;28;23045;-70
2022/04/08 08:35:32;;;;;;;22.98;10.30;;;;;;;;;;4970663;28;20034;-71
2022/04/08 08:38:00;;;;;;;32.75;11.68;;;;;;;;;;4951223;28;20038;-67
2022/04/08 08:40:33;;;;;;;31.83;11.07;;;;;;;;;;4960469;28;20041;-68
2022/04/08 08:43:02;;;;;;;27.08;9.98;;;;;;;;;;4969235;28;20045;-68
2022/04/08 08:45:32;;;;;;;26.60;9.27;;;;;;;;;;4978466;28;20042;-68
2022/04/08 08:48:07;;;;;;;23.88;8.20;;;;;;;;;;4958691;28;20073;-68
2022/04/08 08:50:34;;;;;;;23.90;7.57;;;;;;;;;;4958240;28;20042;-68
2022/04/08 08:53:00;;;;;;;18.45;7.28;;;;;;;;;;4956710;28;20813;-68
2022/04/08 08:55:26;;;;;;;;;;;;;;;;;;4969430;28;20408;-68
2022/04/08 08:58:14;;;;;;;21.90;7.05;;;;;;;;;;4980113;28;19929;-68
2022/04/08 09:00:40;;;;;;;;;;;;;;;;;;4986205;28;20026;-68
2022/04/08 09:03:09;;;;;;;20.85;6.28;;;;;;;;;;4968814;28;20070;-68
2022/04/08 09:05:40;;;;;;;20.33;5.80;;;;;;;;;;4976823;28;20645;-68
2022/04/08 09:08:08;;;;;;;15.43;4.43;;;;;;;;;;4983811;28;20463;-68
2022/04/08 09:10:39;;;;;;;14.75;4.00;;;;;;;;;;4988643;28;20026;-68
2022/04/08 09:13:09;;;;;;;15.35;4.18;;;;;;;;;;4985112;28;20029;-69
2022/04/08 09:15:38;;;;;;;14.27;5.07;;;;;;;;;;4965882;28;20033;-67
2022/04/08 09:18:17;;;;;;;13.68;5.30;;;;;;;;;;4987696;28;20503;-68
2022/04/08 09:20:49;;;;;;;13.20;4.93;;;;;;;;;;4992031;28;20038;-67
2022/04/08 09:23:16;;;;;;;13.77;3.40;;;;;;;;;;4987917;28;20197;-69
2022/04/08 09:25:42;;;;;;;11.85;2.70;;;;;;;;;;4983739;28;20029;-69
2022/04/08 09:28:12;;;;;;;10.13;1.98;;;;;;;;;;4980726;28;20034;-67
2022/04/08 09:30:40;;;;;;;12.48;2.42;;;;;;;;;;4983418;28;20041;-66
2022/04/08 09:33:16;;;;;;;11.52;2.30;;;;;;;;;;4987299;28;20436;-68
2022/04/08 09:35:43;;;;;;;10.45;2.20;;;;;;;;;;4987643;28;20040;-67
2022/04/08 09:38:10;;;;;;;10.60;1.90;;;;;;;;;;5006914;28;20486;-68
2022/04/08 09:40:45;;;;;;;8.68;2.10;;;;;;;;;;4993074;28;20092;-67
2022/04/08 09:43:14;;;;;;;11.00;2.15;;;;;;;;;;5009554;28;20025;-69
2022/04/08 09:45:46;;;;;;;9.70;2.30;;;;;;;;;;5011061;28;20419;-69
2022/04/08 09:48:13;;;;;;;10.30;2.10;;;;;;;;;;4991992;28;20423;-69
2022/04/08 09:50:42;;;;;;;9.23;2.08;;;;;;;;;;4994804;28;20029;-71
2022/04/08 09:53:12;;;;;;;11.98;2.20;;;;;;;;;;4989593;28;20494;-69
2022/04/08 09:55:40;;;;;;;10.98;1.95;;;;;;;;;;5011981;28;20056;-70
2022/04/08 09:58:08;;;;;;;10.30;2.05;;;;;;;;;;5013459;28;20049;-70
2022/04/08 10:00:35;;;;;;;8.25;2.03;;;;;;;;;;5009996;28;20135;-71
2022/04/08 10:03:03;;;;;;;10.50;2.63;;;;;;;;;;4999954;28;20400;-71
2022/04/08 10:05:31;;;;;;;10.93;2.53;;;;;;;;;;4992906;28;20037;-70
2022/04/08 10:08:06;;;;;;;10.68;2.67;;;;;;;;;;4997155;28;20188;-70
2022/04/08 10:10:48;;;;;;;10.63;2.70;;;;;;;;;;5002023;28;20472;-70
2022/04/08 10:13:22;;;;;;;11.65;2.63;;;;;;;;;;4999523;28;20395;-70
2022/04/08 10:16:11;;;;;;;12.10;3.03;;;;;;;;;;4995947;28;20056;-71
2022/04/08 10:18:41;;;;;;;13.40;3.00;;;;;;;;;;4956435;28;20189;-72
2022/04/08 10:21:14;;;;;;;14.90;3.38;;;;;;;;;;4949037;28;20934;-69
2022/04/08 10:23:51;;;;;;;15.85;3.03;;;;;;;;;;4955464;28;20427;-70
2022/04/08 10:26:22;;;;;;;14.38;3.03;;;;;;;;;;4967454;28;20405;-70
2022/04/08 10:28:50;;;;;;;10.93;2.80;;;;;;;;;;4948138;28;20070;-69
2022/04/08 10:31:20;;;;;;;13.18;2.50;;;;;;;;;;4964795;28;20042;-70
2022/04/08 10:33:47;;;;;;;11.10;2.75;;;;;;;;;;4961934;28;20043;-72
2022/04/08 10:36:14;;;;;;;14.10;2.80;;;;;;;;;;4950730;28;20054;-70
2022/04/08 10:38:40;;;;;;;13.55;2.75;;;;;;;;;;4960265;28;20077;-69
2022/04/08 10:41:09;;;;;;;8.23;2.38;;;;;;;;;;4960290;28;20038;-69
2022/04/08 10:43:50;;;;;;;14.63;2.80;;;;;;;;;;4946823;28;20047;-69
2022/04/08 10:46:32;;;;;;;11.38;2.35;;;;;;;;;;4967870;28;20044;-70
2022/04/08 10:48:58;;;;;;;10.73;2.38;;;;;;;;;;4970996;28;20043;-70
2022/04/08 10:51:31;;;;;;;10.02;2.20;;;;;;;;;;5004299;28;20038;-70
2022/04/08 10:54:05;;;;;;;10.43;2.63;;;;;;;;;;5009998;28;20483;-71
2022/04/08 10:56:34;;;;;;;11.10;2.47;;;;;;;;;;5007275;28;20484;-69
2022/04/08 10:59:01;;;;;;;10.75;1.90;;;;;;;;;;5006182;28;20134;-70
2022/04/08 11:01:34;;;;;;;11.27;2.33;;;;;;;;;;5004830;28;20040;-70
2022/04/08 11:04:07;;;;;;;10.07;2.25;;;;;;;;;;5001199;28;20038;-70
2022/04/08 11:06:36;;;;;;;9.75;2.30;;;;;;;;;;5003490;28;20065;-70
2022/04/08 11:09:07;;;;;;;11.68;2.40;;;;;;;;;;4997894;28;20551;-70
2022/04/08 11:11:35;;;;;;;10.00;2.40;;;;;;;;;;4999047;28;20514;-71
2022/04/08 11:14:04;;;;;;;13.18;2.90;;;;;;;;;;4998461;28;20026;-69
2022/04/08 11:16:35;;;;;;;13.10;2.38;;;;;;;;;;4983796;28;20057;-71
2022/04/08 11:19:06;;;;;;;12.35;2.40;;;;;;;;;;4983919;28;20061;-69
2022/04/08 11:21:35;;;;;;;9.30;2.13;;;;;;;;;;5002446;28;20491;-70
2022/04/08 11:24:03;;;;;;;9.60;2.05;;;;;;;;;;5008497;28;20434;-70
2022/04/08 11:26:31;;;;;;;7.55;1.88;;;;;;;;;;4997812;28;20030;-69
2022/04/08 11:28:57;;;;;;;8.93;2.00;;;;;;;;;;5005562;28;20545;-70
2022/04/08 11:31:24;;;;;;;7.10;1.70;;;;;;;;;;5005774;28;20090;-70
2022/04/08 11:33:51;;;;;;;11.70;2.00;;;;;;;;;;5001317;28;20714;-70
2022/04/08 11:36:23;;;;;;;5.90;1.40;;;;;;;;;;5007482;28;20590;-70
2022/04/08 11:38:51;;;;;;;11.13;2.10;;;;;;;;;;4984104;28;20045;-69
2022/04/08 11:41:20;;;;;;;7.55;1.70;;;;;;;;;;5007001;28;20043;-70
2022/04/08 11:43:48;;;;;;;8.30;1.70;;;;;;;;;;5003309;28;20321;-70
2022/04/08 11:46:15;;;;;;;7.97;1.67;;;;;;;;;;5006233;28;20701;-70
2022/04/08 11:48:42;;;;;;;9.38;1.40;;;;;;;;;;5005289;28;20066;-70
2022/04/08 11:51:10;;;;;;;11.68;1.65;;;;;;;;;;5003005;28;20591;-70
2022/04/08 11:53:43;;;;;;;12.23;2.13;;;;;;;;;;5006407;28;20383;-71
2022/04/08 11:56:10;;;;;;;10.13;2.25;;;;;;;;;;4987224;28;20072;-70
2022/04/08 11:58:37;;;;;;;10.13;2.40;;;;;;;;;;5008322;28;20103;-71
2022/04/08 12:01:05;;;;;;;8.20;2.03;;;;;;;;;;4990024;28;20025;-70
2022/04/08 12:03:36;;;;;;;9.65;2.17;;;;;;;;;;5004858;28;20536;-72
2022/04/08 12:06:04;;;;;;;11.48;2.10;;;;;;;;;;5007375;28;20270;-70
2022/04/08 12:08:32;;;;;;;12.02;2.40;;;;;;;;;;5009121;28;20471;-70
2022/04/08 12:11:01;;;;;;;12.10;2.50;;;;;;;;;;5009260;28;20033;-70
2022/04/08 12:13:33;;;;;;;11.75;2.50;;;;;;;;;;4990201;28;20057;-70
2022/04/08 12:16:00;;;;;;;12.95;2.40;;;;;;;;;;5005878;28;20570;-70
2022/04/08 12:18:28;;;;;;;14.32;2.60;;;;;;;;;;4991772;28;20085;-71
2022/04/08 12:20:57;;;;;;;12.30;2.03;;;;;;;;;;5009822;28;20068;-70
2022/04/08 12:23:24;;;;;;;11.40;2.53;;;;;;;;;;5012689;28;20065;-70
2022/04/08 12:25:55;;;;;;;10.60;2.25;;;;;;;;;;5004794;28;20040;-70
2022/04/08 12:28:38;;;;;;;9.40;2.03;;;;;;;;;;4988962;28;20050;-70
2022/04/08 12:31:12;;;;;;;13.90;2.45;;;;;;;;;;4985092;28;20199;-71
2022/04/08 12:33:40;;;;;;;13.43;2.17;;;;;;;;;;4976492;28;20033;-71
2022/04/08 12:36:10;;;;;;;9.75;2.28;;;;;;;;;;4985422;28;21813;-70
2022/04/08 12:38:40;;;;;;;9.43;2.03;;;;;;;;;;4966955;28;20034;-70
2022/04/08 12:41:10;;;;;;;12.10;2.30;;;;;;;;;;4962047;28;20570;-70
2022/04/08 12:43:37;;;;;;;13.55;2.30;;;;;;;;;;4953237;28;20550;-69
2022/04/08 12:46:04;;;;;;;11.07;2.15;;;;;;;;;;4957370;28;20477;-70
2022/04/08 12:48:32;;;;;;;13.02;2.58;;;;;;;;;;4952325;28;20038;-70
2022/04/08 12:51:00;;;;;;;11.77;2.28;;;;;;;;;;4967626;28;20053;-69
2022/04/08 12:53:29;;;;;;;8.27;1.73;;;;;;;;;;4952363;28;20510;-70
2022/04/08 12:55:57;;;;;;;11.90;2.08;;;;;;;;;;4962051;28;20030;-69
2022/04/08 12:58:24;;;;;;;12.35;2.22;;;;;;;;;;4953501;28;20551;-70
2022/04/08 13:00:54;;;;;;;11.55;1.98;;;;;;;;;;4967037;28;20587;-70
2022/04/08 13:03:23;;;;;;;15.02;2.15;;;;;;;;;;4972561;28;20166;-72
2022/04/08 13:05:51;;;;;;;10.18;1.70;;;;;;;;;;4966831;28;20062;-71
2022/04/08 13:08:18;;;;;;;10.90;1.50;;;;;;;;;;4959434;28;20031;-71
2022/04/08 13:10:45;;;;;;;10.35;1.88;;;;;;;;;;4970247;28;20513;-70
2022/04/08 13:13:12;;;;;;;6.10;1.25;;;;;;;;;;4950988;28;20062;-69
2022/04/08 13:15:39;;;;;;;5.65;1.10;;;;;;;;;;4969895;28;20132;-69
2022/04/08 13:18:06;;;;;;;10.68;1.40;;;;;;;;;;4950839;28;20038;-69
2022/04/08 13:20:35;;;;;;;7.20;1.33;;;;;;;;;;4969050;28;20131;-70
2022/04/08 13:23:03;;;;;;;7.53;1.35;;;;;;;;;;4963027;28;20057;-69
2022/04/08 13:25:31;;;;;;;8.70;1.40;;;;;;;;;;4944545;28;20496;-69
2022/04/08 13:27:58;;;;;;;7.45;1.30;;;;;;;;;;4964425;28;20044;-69
2022/04/08 13:30:26;;;;;;;5.97;1.50;;;;;;;;;;4966503;28;20664;-69
2022/04/08 13:32:54;;;;;;;10.18;1.50;;;;;;;;;;4950606;28;20363;-69
2022/04/08 13:35:22;;;;;;;9.75;1.73;;;;;;;;;;4965300;28;20551;-72
2022/04/08 13:37:50;;;;;;;13.65;1.70;;;;;;;;;;4950627;28;20080;-69
2022/04/08 13:40:18;;;;;;;12.13;2.20;;;;;;;;;;4977681;28;20523;-71
2022/04/08 13:42:48;;;;;;;7.78;1.70;;;;;;;;;;4991907;28;20111;-69
2022/04/08 13:45:16;;;;;;;10.95;1.95;;;;;;;;;;4989381;28;20259;-69
2022/04/08 13:47:49;;;;;;;9.15;2.08;;;;;;;;;;4992025;28;20148;-72
2022/04/08 13:50:16;;;;;;;14.88;2.35;;;;;;;;;;4974618;28;20103;-70
2022/04/08 13:52:49;;;;;;;12.05;2.10;;;;;;;;;;4986040;28;20049;-71
2022/04/08 13:55:17;;;;;;;8.88;2.03;;;;;;;;;;4990946;28;20048;-71
2022/04/08 13:57:43;;;;;;;9.38;1.77;;;;;;;;;;4959490;28;20136;-71
2022/04/08 14:00:10;;;;;;;15.98;7.15;;;;;;;;;;4986434;28;20391;-71
2022/04/08 14:02:40;;;;;;;12.43;2.08;;;;;;;;;;4980212;28;20472;-70
2022/04/08 14:05:08;;;;;;;22.08;13.57;;;;;;;;;;4974208;28;21211;-70
2022/04/08 14:07:36;;;;;;;10.25;1.75;;;;;;;;;;4988353;28;20464;-70
2022/04/08 14:10:04;;;;;;;10.00;1.50;;;;;;;;;;4969954;28;20640;-69
2022/04/08 14:12:33;;;;;;;9.27;2.10;;;;;;;;;;4994425;28;20025;-70
2022/04/08 14:15:00;;;;;;;10.23;1.98;;;;;;;;;;4956351;28;20057;-70
2022/04/08 14:17:27;;;;;;;10.70;2.00;;;;;;;;;;4983940;28;20049;-70
2022/04/08 14:20:01;;;;;;;12.07;2.15;;;;;;;;;;5001086;28;20119;-70
2022/04/08 14:22:39;;;;;;;11.75;2.15;;;;;;;;;;5002564;28;20502;-67
2022/04/08 14:25:06;;;;;;;18.58;2.03;;;;;;;;;;4998587;28;20123;-71
2022/04/08 14:27:33;;;;;;;14.93;2.28;;;;;;;;;;5008193;28;20025;-71
2022/04/08 14:30:00;;;;;;;25.02;3.17;;;;;;;;;;5000466;28;20042;-71
2022/04/08 14:32:26;;;;;;;23.00;2.55;;;;;;;;;;5002225;28;20683;-72
2022/04/08 14:34:54;;;;;;;12.32;2.20;;;;;;;;;;4987933;28;20044;-72
2022/04/08 14:37:20;;;;;;;9.02;2.20;;;;;;;;;;4995501;28;20050;-72
2022/04/08 14:39:46;;;;;;;6.93;1.30;;;;;;;;;;5006161;28;20037;-74
2022/04/08 14:42:13;;;;;;;7.68;1.42;;;;;;;;;;5010053;28;20524;-73